Time;durP1;ratioP1;P1;durP2;ratioP2;P2;SDS_P1;SDS_P2;PMS_P1;PMS_P2;Temp;Humidity;BMP_temperature;BMP_pressure;BME280_temperature;BME280_humidity;BME280_pressure;Samples;Min_cycle;Max_cycle;Signal;HPM_P1;HPM_P2
2024/01/16 00:00:09;;;;;;;3.70;2.57;;;;;;;;;;5084672;28;20252;-83
2024/01/16 00:02:35;;;;;;;3.25;2.72;;;;;;;;;;5065054;28;20422;-80
2024/01/16 00:05:02;;;;;;;3.03;2.73;;;;;;;;;;5079474;28;20270;-80
2024/01/16 00:07:29;;;;;;;4.77;2.43;;;;;;;;;;5075149;28;20223;-78
2024/01/16 00:09:55;;;;;;;2.63;2.17;;;;;;;;;;5083705;28;20224;-81
2024/01/16 00:12:22;;;;;;;4.07;2.63;;;;;;;;;;5079493;28;20238;-78
2024/01/16 00:14:49;;;;;;;3.00;2.43;;;;;;;;;;5077835;28;20216;-80
2024/01/16 00:17:15;;;;;;;2.72;2.33;;;;;;;;;;5080322;28;20420;-79
2024/01/16 00:19:42;;;;;;;2.23;2.03;;;;;;;;;;5084645;28;20220;-81
2024/01/16 00:22:09;;;;;;;2.33;2.00;;;;;;;;;;5072272;28;20276;-79
2024/01/16 00:24:35;;;;;;;2.50;1.90;;;;;;;;;;5082533;28;20301;-79
2024/01/16 00:27:02;;;;;;;4.80;2.03;;;;;;;;;;5067326;28;20291;-78
2024/01/16 00:29:30;;;;;;;2.77;1.90;;;;;;;;;;5070887;28;20232;-80
2024/01/16 00:31:57;;;;;;;3.10;1.90;;;;;;;;;;5069322;28;20246;-79
2024/01/16 00:34:23;;;;;;;2.30;1.80;;;;;;;;;;5078630;28;20356;-78
2024/01/16 00:36:50;;;;;;;2.00;1.70;;;;;;;;;;5084396;28;20196;-78
2024/01/16 00:39:16;;;;;;;4.13;2.07;;;;;;;;;;5065146;28;20219;-79
2024/01/16 00:41:43;;;;;;;2.03;1.83;;;;;;;;;;5066691;28;20208;-79
2024/01/16 00:44:10;;;;;;;1.97;1.80;;;;;;;;;;5067116;28;20192;-80
2024/01/16 00:46:37;;;;;;;1.93;1.80;;;;;;;;;;5074360;28;20194;-79
2024/01/16 00:49:03;;;;;;;2.13;1.73;;;;;;;;;;5091889;28;20272;-78
2024/01/16 00:51:30;;;;;;;3.13;2.10;;;;;;;;;;5083466;28;20207;-80
2024/01/16 00:53:57;;;;;;;2.70;1.93;;;;;;;;;;5059431;28;20249;-79
2024/01/16 00:56:23;;;;;;;3.00;1.97;;;;;;;;;;5081688;28;20180;-80
2024/01/16 00:58:50;;;;;;;2.40;2.20;;;;;;;;;;5075277;28;20438;-78
2024/01/16 01:01:16;;;;;;;4.10;2.23;;;;;;;;;;5082676;28;20188;-79
2024/01/16 01:03:43;;;;;;;2.87;2.33;;;;;;;;;;5079839;28;20220;-80
2024/01/16 01:06:10;;;;;;;2.47;2.27;;;;;;;;;;5075519;28;20196;-79
2024/01/16 01:08:36;;;;;;;3.00;2.10;;;;;;;;;;5081958;28;20196;-79
2024/01/16 01:11:03;;;;;;;3.23;1.90;;;;;;;;;;5080770;28;20198;-79
2024/01/16 01:13:30;;;;;;;3.33;2.30;;;;;;;;;;5083848;28;20195;-79
2024/01/16 01:15:56;;;;;;;2.93;2.23;;;;;;;;;;5080578;28;20196;-78
2024/01/16 01:18:23;;;;;;;3.30;2.33;;;;;;;;;;5078493;28;20216;-77
2024/01/16 01:20:50;;;;;;;3.22;2.42;;;;;;;;;;5079848;28;20430;-80
2024/01/16 01:23:16;;;;;;;4.00;2.27;;;;;;;;;;5084010;28;20219;-80
2024/01/16 01:25:43;;;;;;;3.83;2.60;;;;;;;;;;5083275;28;20665;-85
2024/01/16 01:28:11;;;;;;;3.30;2.43;;;;;;;;;;5078281;28;20265;-79
2024/01/16 01:30:37;;;;;;;5.47;2.63;;;;;;;;;;5079568;28;20204;-80
2024/01/16 01:33:04;;;;;;;2.80;2.60;;;;;;;;;;5086642;28;20210;-80
2024/01/16 01:35:31;;;;;;;2.80;2.27;;;;;;;;;;5078794;28;20184;-81
2024/01/16 01:37:58;;;;;;;2.30;2.10;;;;;;;;;;5071486;28;20258;-80
2024/01/16 01:40:24;;;;;;;3.03;2.20;;;;;;;;;;5082280;28;20264;-80
2024/01/16 01:42:51;;;;;;;2.77;2.47;;;;;;;;;;5074430;28;20714;-79
2024/01/16 01:45:17;;;;;;;3.35;2.55;;;;;;;;;;5084094;28;20452;-78
2024/01/16 01:47:44;;;;;;;2.67;2.23;;;;;;;;;;5088199;28;20189;-80
2024/01/16 01:50:11;;;;;;;3.13;2.57;;;;;;;;;;5082419;28;20236;-81
2024/01/16 01:52:40;;;;;;;3.53;2.53;;;;;;;;;;5087692;28;20197;-78
2024/01/16 01:55:12;;;;;;;2.80;2.10;;;;;;;;;;5085078;28;20218;-78
2024/01/16 01:57:39;;;;;;;2.77;2.37;;;;;;;;;;5080828;28;20198;-80
2024/01/16 02:00:06;;;;;;;3.67;2.70;;;;;;;;;;5085482;28;20515;-78
2024/01/16 02:02:42;;;;;;;3.30;2.67;;;;;;;;;;5085674;28;20203;-78
2024/01/16 02:05:09;;;;;;;2.40;2.20;;;;;;;;;;5082080;28;20226;-80
2024/01/16 02:07:36;;;;;;;2.83;2.50;;;;;;;;;;5085590;28;20223;-80
2024/01/16 02:10:03;;;;;;;3.33;2.57;;;;;;;;;;5058407;28;20247;-79
2024/01/16 02:12:30;;;;;;;2.90;2.57;;;;;;;;;;5068817;28;20184;-82
2024/01/16 02:14:57;;;;;;;5.50;2.67;;;;;;;;;;5089867;28;20298;-81
2024/01/16 02:17:23;;;;;;;3.17;2.67;;;;;;;;;;5083559;28;20216;-78
2024/01/16 02:19:50;;;;;;;3.10;2.50;;;;;;;;;;5090325;28;20739;-77
2024/01/16 02:22:21;;;;;;;3.27;2.97;;;;;;;;;;5079178;28;20203;-82
2024/01/16 02:24:48;;;;;;;3.40;2.90;;;;;;;;;;5084400;28;20220;-81
2024/01/16 02:27:14;;;;;;;3.83;2.67;;;;;;;;;;5079460;28;20277;-81
2024/01/16 02:29:42;;;;;;;3.40;2.80;;;;;;;;;;5081320;28;20216;-79
2024/01/16 02:32:12;;;;;;;3.00;2.47;;;;;;;;;;5083608;28;20199;-79
2024/01/16 02:34:39;;;;;;;3.67;2.70;;;;;;;;;;5091274;28;20211;-80
2024/01/16 02:37:06;;;;;;;3.70;2.70;;;;;;;;;;5082272;28;20289;-81
2024/01/16 02:39:32;;;;;;;5.07;2.57;;;;;;;;;;5084322;28;20223;-80
2024/01/16 02:41:59;;;;;;;3.40;2.60;;;;;;;;;;5083064;28;20205;-82
2024/01/16 02:44:26;;;;;;;2.53;2.30;;;;;;;;;;5085637;28;20212;-81
2024/01/16 02:46:52;;;;;;;2.40;2.20;;;;;;;;;;5075093;28;20204;-80
2024/01/16 02:49:19;;;;;;;2.83;2.53;;;;;;;;;;5081842;28;20282;-82
2024/01/16 02:51:46;;;;;;;3.30;2.53;;;;;;;;;;5075101;28;20228;-81
2024/01/16 02:54:12;;;;;;;3.40;2.73;;;;;;;;;;5068047;28;20731;-80
2024/01/16 02:56:39;;;;;;;6.40;3.33;;;;;;;;;;5089334;28;21094;-84
2024/01/16 02:59:05;;;;;;;5.10;2.77;;;;;;;;;;5081707;28;20220;-80
2024/01/16 03:01:33;;;;;;;3.13;2.27;;;;;;;;;;5063855;28;20250;-80
2024/01/16 03:03:59;;;;;;;8.87;3.07;;;;;;;;;;5082913;28;20235;-79
2024/01/16 03:06:26;;;;;;;6.20;3.00;;;;;;;;;;5085601;28;20228;-80
2024/01/16 03:08:53;;;;;;;7.53;2.77;;;;;;;;;;5092108;28;20603;-78
2024/01/16 03:11:19;;;;;;;3.63;2.50;;;;;;;;;;5090487;28;20200;-80
2024/01/16 03:13:46;;;;;;;2.87;2.40;;;;;;;;;;5081084;28;20196;-78
2024/01/16 03:16:12;;;;;;;4.83;3.20;;;;;;;;;;5081782;28;20185;-80
2024/01/16 03:18:39;;;;;;;4.83;2.63;;;;;;;;;;5074221;28;20226;-80
2024/01/16 03:21:06;;;;;;;3.43;2.60;;;;;;;;;;5083738;28;20224;-80
2024/01/16 03:23:32;;;;;;;3.77;2.53;;;;;;;;;;5083373;28;20223;-80
2024/01/16 03:25:59;;;;;;;2.67;2.47;;;;;;;;;;5085695;28;20266;-80
2024/01/16 03:28:25;;;;;;;3.27;2.23;;;;;;;;;;5081650;28;20216;-80
2024/01/16 03:30:52;;;;;;;3.47;2.80;;;;;;;;;;5065482;28;20208;-80
2024/01/16 03:33:20;;;;;;;2.83;2.53;;;;;;;;;;5093293;28;20390;-80
2024/01/16 03:35:47;;;;;;;3.67;2.67;;;;;;;;;;5068912;28;20224;-80
2024/01/16 03:38:14;;;;;;;2.80;2.37;;;;;;;;;;5084641;28;20207;-80
2024/01/16 03:40:40;;;;;;;3.23;2.27;;;;;;;;;;5092170;28;20231;-78
2024/01/16 03:43:07;;;;;;;2.47;2.20;;;;;;;;;;5080059;28;20235;-79
2024/01/16 03:45:34;;;;;;;3.10;2.27;;;;;;;;;;5076956;28;20197;-80
2024/01/16 03:48:02;;;;;;;3.00;2.43;;;;;;;;;;5077364;28;20213;-80
2024/01/16 03:50:30;;;;;;;2.97;2.27;;;;;;;;;;5077367;28;20227;-80
2024/01/16 03:52:56;;;;;;;3.47;2.37;;;;;;;;;;5077337;28;20200;-80
2024/01/16 03:55:23;;;;;;;2.30;2.10;;;;;;;;;;5080401;28;20209;-80
2024/01/16 03:57:50;;;;;;;3.03;2.23;;;;;;;;;;5078997;28;20224;-79
2024/01/16 04:00:17;;;;;;;3.07;2.00;;;;;;;;;;5075071;28;20216;-80
2024/01/16 04:02:44;;;;;;;3.30;2.30;;;;;;;;;;5080366;28;20199;-81
2024/01/16 04:05:10;;;;;;;2.20;2.00;;;;;;;;;;5075985;28;20204;-80
2024/01/16 04:07:37;;;;;;;2.97;2.10;;;;;;;;;;5076404;28;20200;-81
2024/01/16 04:10:06;;;;;;;2.93;2.20;;;;;;;;;;5084883;28;20734;-82
2024/01/16 04:12:32;;;;;;;2.00;1.80;;;;;;;;;;5085511;28;20710;-79
2024/01/16 04:14:59;;;;;;;2.83;2.10;;;;;;;;;;5084635;28;20608;-80
2024/01/16 04:17:25;;;;;;;3.87;2.00;;;;;;;;;;5081790;28;20193;-80
2024/01/16 04:19:52;;;;;;;3.13;2.10;;;;;;;;;;5078542;28;20247;-79
2024/01/16 04:22:19;;;;;;;4.87;1.57;;;;;;;;;;5086107;28;20660;-81
2024/01/16 04:24:46;;;;;;;4.13;2.13;;;;;;;;;;5086482;28;20201;-80
2024/01/16 04:27:13;;;;;;;4.10;1.90;;;;;;;;;;5083274;28;20196;-79
2024/01/16 04:29:39;;;;;;;2.00;1.77;;;;;;;;;;5081341;28;20220;-80
2024/01/16 04:32:06;;;;;;;3.47;2.07;;;;;;;;;;5076047;28;20201;-82
2024/01/16 04:34:34;;;;;;;2.10;1.90;;;;;;;;;;5090215;28;20202;-78
2024/01/16 04:37:01;;;;;;;3.23;2.00;;;;;;;;;;5080827;28;20195;-80
2024/01/16 04:39:27;;;;;;;3.00;2.30;;;;;;;;;;5072727;28;20535;-80
2024/01/16 04:41:54;;;;;;;2.87;1.87;;;;;;;;;;5079173;28;20192;-79
2024/01/16 04:44:20;;;;;;;2.10;1.70;;;;;;;;;;5071689;28;20223;-80
2024/01/16 04:46:47;;;;;;;2.27;2.00;;;;;;;;;;5082021;28;20299;-79
2024/01/16 04:49:14;;;;;;;2.97;1.80;;;;;;;;;;5075503;28;20235;-79
2024/01/16 04:51:40;;;;;;;2.23;1.90;;;;;;;;;;5077511;28;20657;-81
2024/01/16 04:54:07;;;;;;;3.47;1.90;;;;;;;;;;5082752;28;20264;-80
2024/01/16 04:56:34;;;;;;;2.20;1.67;;;;;;;;;;5081396;28;20269;-81
2024/01/16 04:59:00;;;;;;;2.10;1.70;;;;;;;;;;5078507;28;20184;-79
2024/01/16 05:01:27;;;;;;;1.77;1.67;;;;;;;;;;5083295;28;20736;-79
2024/01/16 05:03:54;;;;;;;2.87;1.70;;;;;;;;;;5084746;28;20204;-79
2024/01/16 05:06:21;;;;;;;3.80;2.10;;;;;;;;;;5084898;28;20268;-82
2024/01/16 05:08:48;;;;;;;2.90;1.87;;;;;;;;;;5084067;28;20661;-83
2024/01/16 05:11:15;;;;;;;2.20;1.80;;;;;;;;;;5080956;28;20215;-81
2024/01/16 05:13:41;;;;;;;2.83;1.57;;;;;;;;;;5062825;28;20228;-81
2024/01/16 05:16:08;;;;;;;2.87;1.57;;;;;;;;;;5083074;28;20193;-85
2024/01/16 05:18:35;;;;;;;1.90;1.40;;;;;;;;;;5085749;28;20189;-82
2024/01/16 05:21:02;;;;;;;1.80;1.37;;;;;;;;;;5088501;28;20243;-82
2024/01/16 05:23:29;;;;;;;2.73;1.30;;;;;;;;;;5088892;28;20687;-86
2024/01/16 05:25:55;;;;;;;2.10;1.20;;;;;;;;;;5087558;28;20200;-83
2024/01/16 05:28:22;;;;;;;1.83;1.20;;;;;;;;;;5095039;28;20192;-83
2024/01/16 05:30:49;;;;;;;1.53;1.07;;;;;;;;;;5090514;28;20192;-79
2024/01/16 05:33:15;;;;;;;1.90;1.10;;;;;;;;;;5068963;28;20205;-82
2024/01/16 05:35:42;;;;;;;1.30;0.90;;;;;;;;;;5064939;28;20188;-78
2024/01/16 05:38:12;;;;;;;1.23;0.90;;;;;;;;;;5093338;28;20199;-81
2024/01/16 05:40:39;;;;;;;2.27;1.00;;;;;;;;;;5090081;28;20223;-84
2024/01/16 05:43:06;;;;;;;2.67;1.00;;;;;;;;;;5086308;28;20203;-79
2024/01/16 05:45:33;;;;;;;3.43;0.90;;;;;;;;;;5083597;28;20208;-79
2024/01/16 05:47:59;;;;;;;2.97;1.20;;;;;;;;;;5083750;28;20201;-80
2024/01/16 05:50:26;;;;;;;1.17;1.07;;;;;;;;;;5082982;28;20311;-82
2024/01/16 05:52:53;;;;;;;2.40;1.30;;;;;;;;;;5057381;28;20250;-85
2024/01/16 05:55:21;;;;;;;1.70;1.10;;;;;;;;;;5084915;28;20188;-81
2024/01/16 05:57:48;;;;;;;2.93;1.80;;;;;;;;;;5087119;28;20189;-79
2024/01/16 06:00:14;;;;;;;1.80;1.10;;;;;;;;;;5088027;28;20220;-80
2024/01/16 06:02:41;;;;;;;3.50;1.30;;;;;;;;;;5087673;28;20199;-79
2024/01/16 06:05:07;;;;;;;2.23;1.20;;;;;;;;;;5066472;28;20205;-80
2024/01/16 06:07:34;;;;;;;1.93;0.97;;;;;;;;;;5087856;28;20192;-79
2024/01/16 06:10:01;;;;;;;3.20;1.10;;;;;;;;;;5080075;28;20716;-80
2024/01/16 06:12:29;;;;;;;1.93;1.00;;;;;;;;;;5085625;28;20279;-80
2024/01/16 06:14:57;;;;;;;2.50;1.00;;;;;;;;;;5069177;28;20205;-79
2024/01/16 06:17:24;;;;;;;2.30;0.80;;;;;;;;;;5088177;28;20198;-80
2024/01/16 06:19:51;;;;;;;2.13;0.90;;;;;;;;;;5069502;28;20223;-81
2024/01/16 06:22:18;;;;;;;1.50;1.20;;;;;;;;;;5087014;28;20239;-81
2024/01/16 06:24:44;;;;;;;2.17;0.83;;;;;;;;;;5082543;28;20279;-80
2024/01/16 06:27:14;;;;;;;3.47;1.10;;;;;;;;;;5080102;28;20282;-80
2024/01/16 06:29:40;;;;;;;3.33;1.10;;;;;;;;;;5083289;28;20200;-80
2024/01/16 06:32:07;;;;;;;2.63;0.93;;;;;;;;;;5065885;28;20198;-80
2024/01/16 06:34:33;;;;;;;1.60;0.80;;;;;;;;;;5080822;28;20203;-80
2024/01/16 06:37:00;;;;;;;2.27;1.00;;;;;;;;;;5069728;28;20285;-81
2024/01/16 06:39:27;;;;;;;1.53;0.80;;;;;;;;;;5059852;28;20242;-80
2024/01/16 06:41:53;;;;;;;1.73;1.00;;;;;;;;;;5084230;28;20220;-79
2024/01/16 06:44:20;;;;;;;2.40;0.90;;;;;;;;;;5082375;28;20213;-81
2024/01/16 06:46:47;;;;;;;1.93;0.80;;;;;;;;;;5075088;28;20197;-80
2024/01/16 06:49:13;;;;;;;2.50;0.90;;;;;;;;;;5079410;28;20236;-81
2024/01/16 06:51:40;;;;;;;2.03;0.93;;;;;;;;;;5079900;28;20195;-79
2024/01/16 06:54:07;;;;;;;1.00;0.80;;;;;;;;;;5063220;28;20212;-81
2024/01/16 06:56:33;;;;;;;1.63;0.90;;;;;;;;;;5080034;28;20231;-81
2024/01/16 06:59:00;;;;;;;2.37;0.60;;;;;;;;;;5067119;28;20192;-83
2024/01/16 07:01:27;;;;;;;2.47;0.90;;;;;;;;;;5086520;28;20256;-79
2024/01/16 07:03:53;;;;;;;2.40;0.80;;;;;;;;;;5083759;28;20269;-85
2024/01/16 07:06:20;;;;;;;2.33;0.80;;;;;;;;;;5079303;28;20288;-81
2024/01/16 07:08:47;;;;;;;2.83;1.30;;;;;;;;;;5081720;28;20204;-79
2024/01/16 07:11:14;;;;;;;1.03;0.80;;;;;;;;;;5079979;28;20283;-79
2024/01/16 07:13:41;;;;;;;1.30;0.70;;;;;;;;;;5059236;28;20223;-80
2024/01/16 07:16:11;;;;;;;1.60;0.80;;;;;;;;;;5084294;28;20204;-79
2024/01/16 07:18:38;;;;;;;1.10;0.80;;;;;;;;;;5086580;28;20574;-79
2024/01/16 07:21:15;;;;;;;0.83;0.70;;;;;;;;;;5083596;28;20221;-80
2024/01/16 07:23:42;;;;;;;1.77;0.67;;;;;;;;;;5074194;28;20289;-81
2024/01/16 07:26:08;;;;;;;2.60;0.70;;;;;;;;;;5082543;28;20189;-82
2024/01/16 07:28:35;;;;;;;1.57;0.97;;;;;;;;;;5080679;28;20680;-82
2024/01/16 07:31:01;;;;;;;3.73;1.00;;;;;;;;;;5063898;28;20744;-79
2024/01/16 07:33:28;;;;;;;1.33;0.60;;;;;;;;;;5078167;28;20667;-79
2024/01/16 07:35:55;;;;;;;2.90;0.80;;;;;;;;;;5082156;28;21710;-81
2024/01/16 07:38:22;;;;;;;1.37;0.70;;;;;;;;;;5050600;28;20212;-81
2024/01/16 07:40:49;;;;;;;1.83;0.90;;;;;;;;;;5079240;28;20224;-79
2024/01/16 07:43:15;;;;;;;1.00;0.60;;;;;;;;;;5072933;28;20212;-78
2024/01/16 07:45:42;;;;;;;2.07;0.90;;;;;;;;;;5082163;28;20700;-79
2024/01/16 07:48:08;;;;;;;3.93;1.33;;;;;;;;;;5077680;28;20254;-79
2024/01/16 07:50:35;;;;;;;1.40;0.70;;;;;;;;;;5077041;28;20697;-79
2024/01/16 07:53:02;;;;;;;0.97;0.80;;;;;;;;;;5076066;28;20192;-81
2024/01/16 07:55:28;;;;;;;1.70;0.90;;;;;;;;;;5067374;28;20189;-78
2024/01/16 07:57:55;;;;;;;2.33;1.03;;;;;;;;;;5071726;28;20257;-81
2024/01/16 08:00:22;;;;;;;2.60;0.80;;;;;;;;;;5067840;28;20251;-79
2024/01/16 08:02:48;;;;;;;1.53;0.90;;;;;;;;;;5057068;28;20204;-79
2024/01/16 08:05:15;;;;;;;2.63;0.87;;;;;;;;;;5081867;28;20657;-81
2024/01/16 08:07:42;;;;;;;0.73;0.73;;;;;;;;;;5081898;28;20661;-80
2024/01/16 08:10:09;;;;;;;3.53;0.77;;;;;;;;;;5064697;28;20265;-81
2024/01/16 08:12:37;;;;;;;1.93;0.90;;;;;;;;;;5081530;28;20212;-80
2024/01/16 08:15:04;;;;;;;1.07;0.80;;;;;;;;;;5074299;28;20203;-79
2024/01/16 08:17:31;;;;;;;1.33;0.90;;;;;;;;;;5081316;28;20228;-78
2024/01/16 08:19:57;;;;;;;2.73;0.70;;;;;;;;;;5078941;28;20204;-80
2024/01/16 08:22:24;;;;;;;1.00;0.60;;;;;;;;;;5085673;28;20232;-80
2024/01/16 08:24:51;;;;;;;1.00;0.90;;;;;;;;;;5075310;28;20200;-80
2024/01/16 08:27:19;;;;;;;0.90;0.70;;;;;;;;;;5081889;28;20616;-80
2024/01/16 08:29:47;;;;;;;1.57;0.80;;;;;;;;;;5082850;28;20192;-80
2024/01/16 08:32:14;;;;;;;1.60;0.90;;;;;;;;;;5077650;28;20232;-81
2024/01/16 08:34:40;;;;;;;2.87;0.90;;;;;;;;;;5070811;28;20204;-80
2024/01/16 08:37:07;;;;;;;1.73;0.80;;;;;;;;;;5076244;28;20223;-79
2024/01/16 08:39:34;;;;;;;1.53;0.57;;;;;;;;;;5052810;28;20213;-82
2024/01/16 08:42:02;;;;;;;2.07;0.90;;;;;;;;;;5071361;28;20212;-79
2024/01/16 08:44:29;;;;;;;1.53;0.80;;;;;;;;;;5076679;28;20243;-78
2024/01/16 08:46:57;;;;;;;1.73;0.80;;;;;;;;;;5069794;28;20207;-78
2024/01/16 08:49:24;;;;;;;3.23;0.77;;;;;;;;;;5074279;28;20220;-79
2024/01/16 08:51:50;;;;;;;2.03;0.80;;;;;;;;;;5061102;28;20296;-79
2024/01/16 08:54:17;;;;;;;1.77;0.70;;;;;;;;;;5089613;28;20192;-79
2024/01/16 08:56:44;;;;;;;1.97;0.70;;;;;;;;;;5065279;28;20199;-79
2024/01/16 08:59:10;;;;;;;2.13;0.90;;;;;;;;;;5082565;28;20215;-80
2024/01/16 09:01:37;;;;;;;2.33;1.13;;;;;;;;;;5081842;28;20228;-78
2024/01/16 09:04:04;;;;;;;2.23;0.93;;;;;;;;;;5078074;28;20232;-79
2024/01/16 09:06:30;;;;;;;2.13;0.80;;;;;;;;;;5071711;28;20214;-83
2024/01/16 09:08:57;;;;;;;1.63;0.70;;;;;;;;;;5085380;28;20249;-79
2024/01/16 09:11:24;;;;;;;1.37;0.80;;;;;;;;;;5082542;28;20548;-78
2024/01/16 09:13:51;;;;;;;1.00;0.77;;;;;;;;;;5084039;28;20292;-79
2024/01/16 09:16:17;;;;;;;2.00;1.00;;;;;;;;;;5064063;28;20276;-79
2024/01/16 09:18:44;;;;;;;1.80;0.90;;;;;;;;;;5078750;28;20204;-80
2024/01/16 09:21:11;;;;;;;1.23;0.80;;;;;;;;;;5070232;28;20224;-81
2024/01/16 09:23:38;;;;;;;1.60;0.63;;;;;;;;;;5077688;28;20362;-78
2024/01/16 09:26:04;;;;;;;2.70;1.00;;;;;;;;;;5081924;28;20192;-78
2024/01/16 09:28:31;;;;;;;1.80;0.70;;;;;;;;;;5076187;28;20209;-81
2024/01/16 09:30:58;;;;;;;1.70;1.00;;;;;;;;;;5071922;28;20296;-80
2024/01/16 09:33:28;;;;;;;1.37;0.70;;;;;;;;;;5064209;28;20232;-80
2024/01/16 09:35:55;;;;;;;1.77;0.80;;;;;;;;;;5082342;28;20196;-83
2024/01/16 09:38:21;;;;;;;1.77;0.60;;;;;;;;;;5074290;28;20205;-80
2024/01/16 09:40:50;;;;;;;1.53;0.70;;;;;;;;;;5072052;28;20216;-79
2024/01/16 09:43:17;;;;;;;2.03;0.80;;;;;;;;;;5059435;28;20216;-82
2024/01/16 09:45:44;;;;;;;1.50;0.77;;;;;;;;;;5087387;28;20661;-81
2024/01/16 09:48:11;;;;;;;1.30;0.70;;;;;;;;;;5082950;28;20258;-82
2024/01/16 09:50:38;;;;;;;2.67;0.87;;;;;;;;;;5077690;28;20720;-83
2024/01/16 09:53:05;;;;;;;2.30;0.77;;;;;;;;;;5065450;28;20236;-84
2024/01/16 09:55:32;;;;;;;2.47;0.60;;;;;;;;;;5070369;28;20197;-84
2024/01/16 09:57:59;;;;;;;2.30;0.60;;;;;;;;;;5080250;28;20219;-84
2024/01/16 10:00:26;;;;;;;1.97;0.67;;;;;;;;;;5090470;28;20201;-83
2024/01/16 10:02:52;;;;;;;0.50;0.50;;;;;;;;;;5054101;28;20212;-82
2024/01/16 10:05:19;;;;;;;1.80;0.50;;;;;;;;;;5060821;28;20248;-81
2024/01/16 10:07:47;;;;;;;3.60;1.07;;;;;;;;;;5077274;28;20224;-82
2024/01/16 10:10:13;;;;;;;1.50;0.83;;;;;;;;;;5084376;28;20196;-82
2024/01/16 10:12:50;;;;;;;1.50;0.60;;;;;;;;;;5074496;28;20254;-80
2024/01/16 10:15:19;;;;;;;2.30;0.73;;;;;;;;;;5086984;28;20204;-82
2024/01/16 10:17:46;;;;;;;2.57;0.70;;;;;;;;;;5070934;28;20208;-81
2024/01/16 10:20:13;;;;;;;1.00;0.50;;;;;;;;;;5067982;28;20196;-81
2024/01/16 10:22:41;;;;;;;1.00;0.50;;;;;;;;;;5068591;28;20228;-82
2024/01/16 10:25:08;;;;;;;1.17;0.40;;;;;;;;;;5077666;28;20193;-81
2024/01/16 10:27:35;;;;;;;0.57;0.40;;;;;;;;;;5080461;28;20208;-81
2024/01/16 10:30:05;;;;;;;1.27;0.40;;;;;;;;;;5079280;28;20192;-79
2024/01/16 10:32:39;;;;;;;1.23;0.40;;;;;;;;;;5084421;28;20196;-82
2024/01/16 10:35:13;;;;;;;2.07;0.50;;;;;;;;;;5071432;28;20200;-79
2024/01/16 10:37:42;;;;;;;1.37;0.40;;;;;;;;;;5081015;28;20227;-80
2024/01/16 10:40:12;;;;;;;0.70;0.30;;;;;;;;;;5076647;28;20649;-82
2024/01/16 10:42:39;;;;;;;2.67;0.50;;;;;;;;;;5078246;28;20220;-82
2024/01/16 10:45:16;;;;;;;1.67;0.40;;;;;;;;;;5081990;28;20232;-81
2024/01/16 10:47:43;;;;;;;2.10;0.30;;;;;;;;;;5066243;28;20208;-80
2024/01/16 10:50:09;;;;;;;2.07;0.40;;;;;;;;;;5078788;28;20239;-80
2024/01/16 10:52:40;;;;;;;1.57;0.50;;;;;;;;;;5081328;28;20205;-82
2024/01/16 10:55:09;;;;;;;1.03;0.40;;;;;;;;;;5075635;28;20189;-84
2024/01/16 10:57:38;;;;;;;0.83;0.30;;;;;;;;;;5081553;28;20196;-80
2024/01/16 11:00:06;;;;;;;2.47;0.40;;;;;;;;;;5083295;28;20254;-83
2024/01/16 11:02:37;;;;;;;0.90;0.40;;;;;;;;;;5088578;28;20244;-82
2024/01/16 11:05:05;;;;;;;1.20;0.40;;;;;;;;;;5080819;28;20209;-81
2024/01/16 11:07:34;;;;;;;2.17;0.40;;;;;;;;;;5081097;28;20200;-81
2024/01/16 11:10:02;;;;;;;0.50;0.33;;;;;;;;;;5083972;28;20216;-80
2024/01/16 11:12:30;;;;;;;1.50;0.70;;;;;;;;;;5087283;28;20249;-83
2024/01/16 11:14:59;;;;;;;1.80;0.70;;;;;;;;;;5074614;28;20200;-82
2024/01/16 11:17:26;;;;;;;2.00;0.97;;;;;;;;;;5087780;28;20205;-81
2024/01/16 11:19:53;;;;;;;1.93;0.43;;;;;;;;;;5084248;28;20200;-82
2024/01/16 11:22:41;;;;;;;1.80;0.80;;;;;;;;;;5084805;28;20227;-80
2024/01/16 11:25:09;;;;;;;0.87;0.33;;;;;;;;;;5073231;28;20196;-82
2024/01/16 11:27:37;;;;;;;1.30;0.57;;;;;;;;;;5075012;28;20193;-81
2024/01/16 11:30:23;;;;;;;3.17;0.40;;;;;;;;;;5073919;28;20196;-82
2024/01/16 11:32:50;;;;;;;2.10;0.60;;;;;;;;;;5074681;28;20228;-82
2024/01/16 11:35:31;;;;;;;1.20;0.60;;;;;;;;;;5073255;28;20200;-83
2024/01/16 11:38:03;;;;;;;1.50;0.50;;;;;;;;;;5074579;28;20208;-83
2024/01/16 11:40:31;;;;;;;1.13;0.40;;;;;;;;;;5068595;28;20205;-82
2024/01/16 11:42:58;;;;;;;1.70;0.50;;;;;;;;;;5055385;28;20221;-82
2024/01/16 11:45:28;;;;;;;1.80;0.40;;;;;;;;;;5071346;28;20697;-83
2024/01/16 11:48:11;;;;;;;0.60;0.20;;;;;;;;;;5071861;28;20204;-83
2024/01/16 11:50:38;;;;;;;0.43;0.30;;;;;;;;;;5079786;28;20708;-83
2024/01/16 11:53:05;;;;;;;1.50;0.30;;;;;;;;;;5077418;28;20201;-82
2024/01/16 11:55:33;;;;;;;0.97;0.30;;;;;;;;;;5080666;28;20277;-82
2024/01/16 11:58:00;;;;;;;1.53;0.37;;;;;;;;;;5079620;28;20239;-80
2024/01/16 12:00:28;;;;;;;0.90;0.40;;;;;;;;;;5083426;28;20283;-81
2024/01/16 12:03:01;;;;;;;1.90;0.60;;;;;;;;;;5056661;28;20221;-82
2024/01/16 12:05:28;;;;;;;0.90;0.47;;;;;;;;;;5084771;28;20201;-81
2024/01/16 12:07:55;;;;;;;0.93;0.33;;;;;;;;;;5084343;28;20208;-82
2024/01/16 12:10:23;;;;;;;1.00;0.30;;;;;;;;;;5088510;28;20224;-83
2024/01/16 12:12:51;;;;;;;1.30;0.60;;;;;;;;;;5068635;28;20203;-82
2024/01/16 12:15:21;;;;;;;0.80;0.40;;;;;;;;;;5063704;28;20201;-82
2024/01/16 12:17:52;;;;;;;0.70;0.30;;;;;;;;;;5073965;28;20203;-83
2024/01/16 12:20:19;;;;;;;0.97;0.60;;;;;;;;;;5071942;28;20612;-82
2024/01/16 12:22:51;;;;;;;0.90;0.33;;;;;;;;;;5084342;28;20228;-82
2024/01/16 12:25:19;;;;;;;1.13;0.40;;;;;;;;;;5079154;28;20192;-80
2024/01/16 12:27:46;;;;;;;0.63;0.37;;;;;;;;;;5080557;28;20189;-82
2024/01/16 12:30:13;;;;;;;1.30;0.30;;;;;;;;;;5059544;28;20235;-84
2024/01/16 12:32:40;;;;;;;0.97;0.47;;;;;;;;;;5056614;28;20661;-83
2024/01/16 12:35:07;;;;;;;1.30;0.50;;;;;;;;;;5082293;28;20193;-83
2024/01/16 12:37:34;;;;;;;2.10;0.50;;;;;;;;;;5073633;28;20516;-82
2024/01/16 12:40:01;;;;;;;0.90;0.30;;;;;;;;;;5089764;28;20197;-83
2024/01/16 12:42:27;;;;;;;1.60;0.33;;;;;;;;;;5073992;28;20763;-82
2024/01/16 12:44:54;;;;;;;1.73;1.00;;;;;;;;;;5082829;28;20223;-84
2024/01/16 12:47:22;;;;;;;0.73;0.40;;;;;;;;;;5077715;28;20191;-82
2024/01/16 12:49:49;;;;;;;1.67;0.40;;;;;;;;;;5076032;28;20221;-82
2024/01/16 12:52:21;;;;;;;0.93;0.40;;;;;;;;;;5075547;28;20675;-83
2024/01/16 12:54:58;;;;;;;1.27;0.47;;;;;;;;;;5075864;28;20284;-81
2024/01/16 12:57:24;;;;;;;4.17;1.67;;;;;;;;;;5077122;28;20191;-86
2024/01/16 12:59:51;;;;;;;1.43;0.60;;;;;;;;;;5076504;28;20247;-83
2024/01/16 13:02:19;;;;;;;1.83;0.50;;;;;;;;;;5075743;28;20304;-82
2024/01/16 13:04:46;;;;;;;1.23;0.40;;;;;;;;;;5076777;28;20185;-81
2024/01/16 13:07:15;;;;;;;1.40;0.60;;;;;;;;;;5075544;28;20684;-82
2024/01/16 13:09:42;;;;;;;1.33;0.50;;;;;;;;;;5072274;28;20242;-84
2024/01/16 13:12:09;;;;;;;1.47;0.60;;;;;;;;;;5079978;28;20192;-82
2024/01/16 13:14:36;;;;;;;0.50;0.30;;;;;;;;;;5085124;28;20196;-84
2024/01/16 13:17:02;;;;;;;1.30;0.33;;;;;;;;;;5076722;28;20221;-83
2024/01/16 13:19:33;;;;;;;0.63;0.20;;;;;;;;;;5083118;28;20197;-84
2024/01/16 13:22:00;;;;;;;2.13;0.57;;;;;;;;;;5083896;28;20208;-82
2024/01/16 13:24:26;;;;;;;0.43;0.30;;;;;;;;;;5087684;28;20211;-84
2024/01/16 13:26:54;;;;;;;1.90;0.50;;;;;;;;;;5088619;28;20197;-82
2024/01/16 13:29:21;;;;;;;1.20;0.77;;;;;;;;;;5084659;28;20215;-84
2024/01/16 13:31:48;;;;;;;0.73;0.43;;;;;;;;;;5078264;28;20207;-80
2024/01/16 13:34:17;;;;;;;0.60;0.40;;;;;;;;;;5077887;28;20294;-80
2024/01/16 13:36:45;;;;;;;1.90;0.57;;;;;;;;;;5074260;28;20274;-84
2024/01/16 13:39:36;;;;;;;1.77;0.53;;;;;;;;;;5080041;28;20192;-82
2024/01/16 13:42:06;;;;;;;1.53;0.87;;;;;;;;;;5075294;28;20244;-81
2024/01/16 13:44:33;;;;;;;0.50;0.50;;;;;;;;;;5075622;28;20235;-83
2024/01/16 13:47:00;;;;;;;3.33;0.40;;;;;;;;;;5086296;28;20265;-81
2024/01/16 13:49:35;;;;;;;2.47;0.50;;;;;;;;;;5080360;28;20236;-82
2024/01/16 13:52:03;;;;;;;1.00;0.43;;;;;;;;;;5074681;28;20200;-82
2024/01/16 13:54:30;;;;;;;0.97;0.40;;;;;;;;;;5088925;28;20196;-81
2024/01/16 13:56:56;;;;;;;1.33;0.40;;;;;;;;;;5084849;28;20684;-80
2024/01/16 13:59:33;;;;;;;1.13;0.50;;;;;;;;;;5081827;28;20211;-83
2024/01/16 14:02:00;;;;;;;0.60;0.30;;;;;;;;;;5061258;28;20410;-81
2024/01/16 14:04:28;;;;;;;1.47;1.07;;;;;;;;;;5085287;28;20254;-86
2024/01/16 14:06:55;;;;;;;1.57;0.80;;;;;;;;;;5083005;28;20261;-85
2024/01/16 14:09:41;;;;;;;0.73;0.50;;;;;;;;;;5084015;28;20788;-83
2024/01/16 14:12:09;;;;;;;12.43;9.73;;;;;;;;;;5081287;28;20197;-83
2024/01/16 14:14:37;;;;;;;14.70;9.83;;;;;;;;;;5083932;28;20737;-82
2024/01/16 14:17:05;;;;;;;8.90;7.43;;;;;;;;;;5075543;28;20193;-81
2024/01/16 14:19:34;;;;;;;4.97;2.80;;;;;;;;;;5082901;28;20259;-81
2024/01/16 14:22:00;;;;;;;4.13;3.10;;;;;;;;;;5084078;28;20750;-81
2024/01/16 14:24:27;;;;;;;10.83;9.77;;;;;;;;;;5072199;28;20204;-80
2024/01/16 14:26:56;;;;;;;1.63;0.93;;;;;;;;;;5071985;28;20220;-82
2024/01/16 14:29:23;;;;;;;1.13;0.40;;;;;;;;;;5092725;28;20203;-80
2024/01/16 14:31:49;;;;;;;1.03;0.50;;;;;;;;;;5093568;28;20245;-83
2024/01/16 14:34:17;;;;;;;1.33;0.50;;;;;;;;;;5090211;28;20245;-81
2024/01/16 14:36:45;;;;;;;1.17;0.47;;;;;;;;;;5084277;28;20201;-82
2024/01/16 14:39:17;;;;;;;0.83;0.40;;;;;;;;;;5091654;28;20291;-82
2024/01/16 14:41:45;;;;;;;0.60;0.37;;;;;;;;;;5066428;28;20228;-84
2024/01/16 14:44:12;;;;;;;3.93;0.40;;;;;;;;;;5103141;28;20700;-83